sensor_id;sensor_type;location;lat;lon;timestamp;temperature;humidity
6098;DHT22;3077;50.922;6.584;2022-12-17T00:00:06;0.70;1.00
6098;DHT22;3077;50.922;6.584;2022-12-17T00:02:58;0.70;1.00
6098;DHT22;3077;50.922;6.584;2022-12-17T00:05:42;0.70;1.00
6098;DHT22;3077;50.922;6.584;2022-12-17T00:08:26;0.70;1.00
6098;DHT22;3077;50.922;6.584;2022-12-17T00:11:10;0.70;1.00
6098;DHT22;3077;50.922;6.584;2022-12-17T00:13:54;0.70;1.00
6098;DHT22;3077;50.922;6.584;2022-12-17T00:16:38;0.70;1.00
6098;DHT22;3077;50.922;6.584;2022-12-17T00:19:22;0.70;1.00
6098;DHT22;3077;50.922;6.584;2022-12-17T00:22:06;0.70;1.00
6098;DHT22;3077;50.922;6.584;2022-12-17T00:24:50;0.70;1.00
6098;DHT22;3077;50.922;6.584;2022-12-17T00:27:34;0.70;1.00
6098;DHT22;3077;50.922;6.584;2022-12-17T00:30:18;0.70;1.00
6098;DHT22;3077;50.922;6.584;2022-12-17T00:33:02;0.80;1.00
6098;DHT22;3077;50.922;6.584;2022-12-17T00:35:54;0.80;1.00
6098;DHT22;3077;50.922;6.584;2022-12-17T00:38:38;0.70;1.00
6098;DHT22;3077;50.922;6.584;2022-12-17T00:41:22;0.80;1.00
6098;DHT22;3077;50.922;6.584;2022-12-17T00:44:06;0.70;1.00
6098;DHT22;3077;50.922;6.584;2022-12-17T00:46:50;0.70;1.00
6098;DHT22;3077;50.922;6.584;2022-12-17T00:49:34;0.70;1.00
6098;DHT22;3077;50.922;6.584;2022-12-17T00:52:19;0.70;1.00
6098;DHT22;3077;50.922;6.584;2022-12-17T00:55:03;0.70;1.00
6098;DHT22;3077;50.922;6.584;2022-12-17T00:57:52;0.70;1.00
6098;DHT22;3077;50.922;6.584;2022-12-17T01:00:37;0.60;1.00
6098;DHT22;3077;50.922;6.584;2022-12-17T01:03:22;0.70;1.00
6098;DHT22;3077;50.922;6.584;2022-12-17T01:06:06;0.70;1.00
6098;DHT22;3077;50.922;6.584;2022-12-17T01:08:50;0.70;1.00
6098;DHT22;3077;50.922;6.584;2022-12-17T01:11:34;0.70;1.00
6098;DHT22;3077;50.922;6.584;2022-12-17T01:14:18;0.70;1.00
6098;DHT22;3077;50.922;6.584;2022-12-17T01:17:03;0.80;1.00
6098;DHT22;3077;50.922;6.584;2022-12-17T01:19:47;0.80;1.00
6098;DHT22;3077;50.922;6.584;2022-12-17T01:22:31;0.80;1.00
6098;DHT22;3077;50.922;6.584;2022-12-17T01:25:15;0.80;1.00
6098;DHT22;3077;50.922;6.584;2022-12-17T01:27:59;0.70;1.00
6098;DHT22;3077;50.922;6.584;2022-12-17T01:30:43;0.70;1.00
6098;DHT22;3077;50.922;6.584;2022-12-17T01:33:27;0.60;1.00
6098;DHT22;3077;50.922;6.584;2022-12-17T01:36:11;0.60;1.00
6098;DHT22;3077;50.922;6.584;2022-12-17T01:38:55;0.60;1.00
6098;DHT22;3077;50.922;6.584;2022-12-17T01:41:59;0.50;1.00
6098;DHT22;3077;50.922;6.584;2022-12-17T01:44:54;0.60;1.00
6098;DHT22;3077;50.922;6.584;2022-12-17T01:50:34;0.60;1.00
6098;DHT22;3077;50.922;6.584;2022-12-17T01:53:23;0.60;1.00
6098;DHT22;3077;50.922;6.584;2022-12-17T01:56:08;0.50;1.00
6098;DHT22;3077;50.922;6.584;2022-12-17T01:58:53;0.40;1.00
6098;DHT22;3077;50.922;6.584;2022-12-17T02:01:38;0.40;1.00
6098;DHT22;3077;50.922;6.584;2022-12-17T02:04:23;0.40;1.00
6098;DHT22;3077;50.922;6.584;2022-12-17T02:10:12;0.50;1.00
6098;DHT22;3077;50.922;6.584;2022-12-17T02:13:10;0.40;1.00
6098;DHT22;3077;50.922;6.584;2022-12-17T02:16:19;0.40;1.00
6098;DHT22;3077;50.922;6.584;2022-12-17T02:19:29;0.40;1.00
6098;DHT22;3077;50.922;6.584;2022-12-17T02:25:58;0.40;1.00
6098;DHT22;3077;50.922;6.584;2022-12-17T02:28:47;0.30;1.00
6098;DHT22;3077;50.922;6.584;2022-12-17T02:31:32;0.20;1.00
6098;DHT22;3077;50.922;6.584;2022-12-17T02:34:17;0.20;1.00
6098;DHT22;3077;50.922;6.584;2022-12-17T02:37:01;0.20;1.00
6098;DHT22;3077;50.922;6.584;2022-12-17T02:39:46;0.30;1.00
6098;DHT22;3077;50.922;6.584;2022-12-17T02:42:30;0.30;1.00
6098;DHT22;3077;50.922;6.584;2022-12-17T02:45:15;0.20;1.00
6098;DHT22;3077;50.922;6.584;2022-12-17T02:48:00;0.30;1.00
6098;DHT22;3077;50.922;6.584;2022-12-17T02:50:45;0.30;1.00
6098;DHT22;3077;50.922;6.584;2022-12-17T02:53:32;0.30;1.00
6098;DHT22;3077;50.922;6.584;2022-12-17T02:56:16;0.20;1.00
6098;DHT22;3077;50.922;6.584;2022-12-17T02:59:00;0.20;1.00
6098;DHT22;3077;50.922;6.584;2022-12-17T03:01:44;0.20;1.00
6098;DHT22;3077;50.922;6.584;2022-12-17T03:04:30;0.20;1.00
6098;DHT22;3077;50.922;6.584;2022-12-17T03:07:14;0.20;1.00
6098;DHT22;3077;50.922;6.584;2022-12-17T03:09:58;0.20;1.00
6098;DHT22;3077;50.922;6.584;2022-12-17T03:12:42;0.20;1.00
6098;DHT22;3077;50.922;6.584;2022-12-17T03:15:26;0.20;1.00
6098;DHT22;3077;50.922;6.584;2022-12-17T03:18:10;0.20;1.00
6098;DHT22;3077;50.922;6.584;2022-12-17T03:20:54;0.10;1.00
6098;DHT22;3077;50.922;6.584;2022-12-17T03:23:38;0.10;1.00
6098;DHT22;3077;50.922;6.584;2022-12-17T03:26:23;0.10;1.00
6098;DHT22;3077;50.922;6.584;2022-12-17T03:29:07;0.20;1.00
6098;DHT22;3077;50.922;6.584;2022-12-17T03:31:51;0.10;1.00
6098;DHT22;3077;50.922;6.584;2022-12-17T03:34:34;0.10;1.00
6098;DHT22;3077;50.922;6.584;2022-12-17T03:37:19;0.10;99.90
6098;DHT22;3077;50.922;6.584;2022-12-17T03:40:03;0.10;99.90
6098;DHT22;3077;50.922;6.584;2022-12-17T03:42:48;0.00;99.90
6098;DHT22;3077;50.922;6.584;2022-12-17T03:45:32;0.00;1.00
6098;DHT22;3077;50.922;6.584;2022-12-17T03:48:16;-0.10;1.00
6098;DHT22;3077;50.922;6.584;2022-12-17T03:51:00;0.20;1.00
6098;DHT22;3077;50.922;6.584;2022-12-17T03:53:45;0.00;1.00
6098;DHT22;3077;50.922;6.584;2022-12-17T03:56:29;0.00;1.00
6098;DHT22;3077;50.922;6.584;2022-12-17T03:59:13;0.00;1.00
6098;DHT22;3077;50.922;6.584;2022-12-17T04:01:58;0.10;1.00
6098;DHT22;3077;50.922;6.584;2022-12-17T04:04:42;0.00;1.00
6098;DHT22;3077;50.922;6.584;2022-12-17T04:07:26;0.00;99.90
6098;DHT22;3077;50.922;6.584;2022-12-17T04:10:11;-0.20;99.90
6098;DHT22;3077;50.922;6.584;2022-12-17T04:12:55;-0.20;99.90
6098;DHT22;3077;50.922;6.584;2022-12-17T04:15:39;-0.30;99.90
6098;DHT22;3077;50.922;6.584;2022-12-17T04:18:23;-0.40;1.00
6098;DHT22;3077;50.922;6.584;2022-12-17T04:21:07;-0.80;1.00
6098;DHT22;3077;50.922;6.584;2022-12-17T04:23:52;-0.20;1.00
6098;DHT22;3077;50.922;6.584;2022-12-17T04:26:36;-0.30;1.00
6098;DHT22;3077;50.922;6.584;2022-12-17T04:29:20;-0.30;1.00
6098;DHT22;3077;50.922;6.584;2022-12-17T04:32:04;-0.30;1.00
6098;DHT22;3077;50.922;6.584;2022-12-17T04:34:48;-0.30;1.00
6098;DHT22;3077;50.922;6.584;2022-12-17T04:37:32;0.30;1.00
6098;DHT22;3077;50.922;6.584;2022-12-17T04:40:16;-0.30;1.00
6098;DHT22;3077;50.922;6.584;2022-12-17T04:43:08;-0.30;99.90
6098;DHT22;3077;50.922;6.584;2022-12-17T04:45:53;-0.30;1.00
6098;DHT22;3077;50.922;6.584;2022-12-17T04:48:37;-0.40;99.90
6098;DHT22;3077;50.922;6.584;2022-12-17T04:51:21;-0.40;1.00
6098;DHT22;3077;50.922;6.584;2022-12-17T04:54:05;-0.60;99.90
6098;DHT22;3077;50.922;6.584;2022-12-17T04:56:49;-0.60;1.00
6098;DHT22;3077;50.922;6.584;2022-12-17T04:59:33;-1.20;1.00
6098;DHT22;3077;50.922;6.584;2022-12-17T05:02:17;-0.60;1.00
6098;DHT22;3077;50.922;6.584;2022-12-17T05:05:01;-0.50;1.00
6098;DHT22;3077;50.922;6.584;2022-12-17T05:07:45;-0.60;1.00
6098;DHT22;3077;50.922;6.584;2022-12-17T05:10:29;-0.70;1.00
6098;DHT22;3077;50.922;6.584;2022-12-17T05:13:13;-0.50;1.00
6098;DHT22;3077;50.922;6.584;2022-12-17T05:15:57;-0.60;1.00
6098;DHT22;3077;50.922;6.584;2022-12-17T05:18:41;-1.00;1.00
6098;DHT22;3077;50.922;6.584;2022-12-17T05:21:25;-0.50;1.00
6098;DHT22;3077;50.922;6.584;2022-12-17T05:24:09;-0.60;1.00
6098;DHT22;3077;50.922;6.584;2022-12-17T05:26:53;-0.60;1.00
6098;DHT22;3077;50.922;6.584;2022-12-17T05:29:37;-0.60;1.00
6098;DHT22;3077;50.922;6.584;2022-12-17T05:32:21;0.30;1.00
6098;DHT22;3077;50.922;6.584;2022-12-17T05:35:05;0.10;1.00
6098;DHT22;3077;50.922;6.584;2022-12-17T05:37:50;-0.70;1.00
6098;DHT22;3077;50.922;6.584;2022-12-17T05:40:34;-0.60;1.00
6098;DHT22;3077;50.922;6.584;2022-12-17T05:46:03;-0.60;1.00
6098;DHT22;3077;50.922;6.584;2022-12-17T05:48:47;-0.80;1.00
6098;DHT22;3077;50.922;6.584;2022-12-17T05:51:31;-0.70;1.00
6098;DHT22;3077;50.922;6.584;2022-12-17T05:54:15;-0.10;1.00
6098;DHT22;3077;50.922;6.584;2022-12-17T05:56:59;-0.80;1.00
6098;DHT22;3077;50.922;6.584;2022-12-17T05:59:43;-0.90;1.00
6098;DHT22;3077;50.922;6.584;2022-12-17T06:02:27;-0.80;1.00
6098;DHT22;3077;50.922;6.584;2022-12-17T06:05:12;-1.00;1.00
6098;DHT22;3077;50.922;6.584;2022-12-17T06:08:06;-1.20;1.00
6098;DHT22;3077;50.922;6.584;2022-12-17T06:10:51;-1.20;1.00
6098;DHT22;3077;50.922;6.584;2022-12-17T06:13:35;-1.20;1.00
6098;DHT22;3077;50.922;6.584;2022-12-17T06:16:19;-1.20;1.00
6098;DHT22;3077;50.922;6.584;2022-12-17T06:19:03;-1.20;1.00
6098;DHT22;3077;50.922;6.584;2022-12-17T06:21:48;-1.30;1.00
6098;DHT22;3077;50.922;6.584;2022-12-17T06:24:31;-1.30;1.00
6098;DHT22;3077;50.922;6.584;2022-12-17T06:27:15;-1.40;1.00
6098;DHT22;3077;50.922;6.584;2022-12-17T06:29:59;-1.40;1.00
6098;DHT22;3077;50.922;6.584;2022-12-17T06:32:43;-1.50;1.00
6098;DHT22;3077;50.922;6.584;2022-12-17T06:35:27;-1.90;1.00
6098;DHT22;3077;50.922;6.584;2022-12-17T06:40:59;-1.40;1.00
6098;DHT22;3077;50.922;6.584;2022-12-17T06:43:44;-1.30;1.00
6098;DHT22;3077;50.922;6.584;2022-12-17T06:46:28;-1.30;1.00
6098;DHT22;3077;50.922;6.584;2022-12-17T06:49:12;-1.20;1.00
6098;DHT22;3077;50.922;6.584;2022-12-17T06:51:56;-1.30;1.00
6098;DHT22;3077;50.922;6.584;2022-12-17T06:54:40;-1.30;1.00
6098;DHT22;3077;50.922;6.584;2022-12-17T06:57:24;-1.50;1.00
6098;DHT22;3077;50.922;6.584;2022-12-17T07:00:08;-1.30;1.00
6098;DHT22;3077;50.922;6.584;2022-12-17T07:02:56;-1.60;1.00
6098;DHT22;3077;50.922;6.584;2022-12-17T07:05:41;-1.50;1.60
6098;DHT22;3077;50.922;6.584;2022-12-17T07:08:25;-1.60;12.40
6098;DHT22;3077;50.922;6.584;2022-12-17T07:11:10;-1.60;20.90
6098;DHT22;3077;50.922;6.584;2022-12-17T07:13:54;-1.50;15.80
6098;DHT22;3077;50.922;6.584;2022-12-17T07:16:38;-1.50;21.00
6098;DHT22;3077;50.922;6.584;2022-12-17T07:19:22;-1.50;19.50
6098;DHT22;3077;50.922;6.584;2022-12-17T07:22:06;-1.60;20.80
6098;DHT22;3077;50.922;6.584;2022-12-17T07:24:50;-1.60;14.80
6098;DHT22;3077;50.922;6.584;2022-12-17T07:27:34;-1.50;18.50
6098;DHT22;3077;50.922;6.584;2022-12-17T07:30:18;-1.50;17.00
6098;DHT22;3077;50.922;6.584;2022-12-17T07:33:04;-1.50;18.70
6098;DHT22;3077;50.922;6.584;2022-12-17T07:35:50;-1.60;12.20
6098;DHT22;3077;50.922;6.584;2022-12-17T07:38:35;-1.60;19.70
6098;DHT22;3077;50.922;6.584;2022-12-17T07:41:19;-1.60;30.50
6098;DHT22;3077;50.922;6.584;2022-12-17T07:44:03;-1.60;1.40
6098;DHT22;3077;50.922;6.584;2022-12-17T07:49:32;-1.70;13.70
6098;DHT22;3077;50.922;6.584;2022-12-17T07:52:16;-1.80;13.50
6098;DHT22;3077;50.922;6.584;2022-12-17T07:55:00;-1.80;24.90
6098;DHT22;3077;50.922;6.584;2022-12-17T07:57:44;-1.80;43.00
6098;DHT22;3077;50.922;6.584;2022-12-17T08:03:13;-1.60;51.60
6098;DHT22;3077;50.922;6.584;2022-12-17T08:05:57;-2.40;48.80
6098;DHT22;3077;50.922;6.584;2022-12-17T08:08:41;-1.80;45.80
6098;DHT22;3077;50.922;6.584;2022-12-17T08:11:25;-1.80;49.00
6098;DHT22;3077;50.922;6.584;2022-12-17T08:14:09;-2.00;52.90
6098;DHT22;3077;50.922;6.584;2022-12-17T08:16:54;-2.10;65.30
6098;DHT22;3077;50.922;6.584;2022-12-17T08:19:38;-2.00;79.20
6098;DHT22;3077;50.922;6.584;2022-12-17T08:22:22;-2.10;92.00
6098;DHT22;3077;50.922;6.584;2022-12-17T08:25:06;-2.00;97.90
6098;DHT22;3077;50.922;6.584;2022-12-17T08:28:00;-2.00;85.80
6098;DHT22;3077;50.922;6.584;2022-12-17T08:30:48;-1.90;51.30
6098;DHT22;3077;50.922;6.584;2022-12-17T08:41:46;-1.90;77.80
6098;DHT22;3077;50.922;6.584;2022-12-17T08:44:30;-1.90;87.70
6098;DHT22;3077;50.922;6.584;2022-12-17T08:47:14;-1.80;83.10
6098;DHT22;3077;50.922;6.584;2022-12-17T08:49:58;-2.00;49.50
6098;DHT22;3077;50.922;6.584;2022-12-17T08:52:42;-1.90;92.10
6098;DHT22;3077;50.922;6.584;2022-12-17T08:55:26;-1.70;91.40
6098;DHT22;3077;50.922;6.584;2022-12-17T08:58:10;-1.90;67.70
6098;DHT22;3077;50.922;6.584;2022-12-17T09:00:58;-1.30;43.40
6098;DHT22;3077;50.922;6.584;2022-12-17T09:03:42;-2.00;54.90
6098;DHT22;3077;50.922;6.584;2022-12-17T09:06:26;-1.90;56.60
6098;DHT22;3077;50.922;6.584;2022-12-17T09:11:54;-2.00;52.50
6098;DHT22;3077;50.922;6.584;2022-12-17T09:14:38;-2.10;55.00
6098;DHT22;3077;50.922;6.584;2022-12-17T09:17:22;-2.20;44.00
6098;DHT22;3077;50.922;6.584;2022-12-17T09:20:07;-2.30;71.40
6098;DHT22;3077;50.922;6.584;2022-12-17T09:22:51;-2.40;87.20
6098;DHT22;3077;50.922;6.584;2022-12-17T09:25:35;-2.40;80.10
6098;DHT22;3077;50.922;6.584;2022-12-17T09:28:19;-2.50;99.90
6098;DHT22;3077;50.922;6.584;2022-12-17T09:36:52;-2.20;97.90
6098;DHT22;3077;50.922;6.584;2022-12-17T09:42:33;-2.10;98.80
6098;DHT22;3077;50.922;6.584;2022-12-17T09:48:59;-2.10;43.30
6098;DHT22;3077;50.922;6.584;2022-12-17T09:51:44;-2.10;66.40
6098;DHT22;3077;50.922;6.584;2022-12-17T09:54:34;-1.50;92.80
6098;DHT22;3077;50.922;6.584;2022-12-17T09:57:34;-2.10;39.90
6098;DHT22;3077;50.922;6.584;2022-12-17T10:03:11;-2.10;41.80
6098;DHT22;3077;50.922;6.584;2022-12-17T10:06:01;-2.00;26.00
6098;DHT22;3077;50.922;6.584;2022-12-17T10:08:48;-2.30;17.20
6098;DHT22;3077;50.922;6.584;2022-12-17T10:11:34;-2.10;58.70
6098;DHT22;3077;50.922;6.584;2022-12-17T10:14:22;-2.10;53.80
6098;DHT22;3077;50.922;6.584;2022-12-17T10:17:19;-1.50;68.40
6098;DHT22;3077;50.922;6.584;2022-12-17T10:21:00;-2.00;28.10
6098;DHT22;3077;50.922;6.584;2022-12-17T10:23:28;-2.00;13.20
6098;DHT22;3077;50.922;6.584;2022-12-17T10:26:18;-2.00;9.80
6098;DHT22;3077;50.922;6.584;2022-12-17T10:29:05;-2.10;14.60
6098;DHT22;3077;50.922;6.584;2022-12-17T10:34:36;-1.90;11.10
6098;DHT22;3077;50.922;6.584;2022-12-17T10:37:21;-1.80;49.60
6098;DHT22;3077;50.922;6.584;2022-12-17T10:40:18;-1.90;8.40
6098;DHT22;3077;50.922;6.584;2022-12-17T10:43:19;-1.10;21.10
6098;DHT22;3077;50.922;6.584;2022-12-17T10:46:04;-2.10;17.20
6098;DHT22;3077;50.922;6.584;2022-12-17T10:51:34;-1.80;1.00
6098;DHT22;3077;50.922;6.584;2022-12-17T10:54:27;-1.80;2.40
6098;DHT22;3077;50.922;6.584;2022-12-17T10:57:30;-1.90;1.00
6098;DHT22;3077;50.922;6.584;2022-12-17T11:03:00;-2.10;1.00
6098;DHT22;3077;50.922;6.584;2022-12-17T11:06:01;-1.70;1.00
6098;DHT22;3077;50.922;6.584;2022-12-17T11:08:45;-2.30;7.90
6098;DHT22;3077;50.922;6.584;2022-12-17T11:11:30;-2.00;17.50
6098;DHT22;3077;50.922;6.584;2022-12-17T11:17:01;-1.80;1.00
6098;DHT22;3077;50.922;6.584;2022-12-17T11:19:56;-1.80;1.00
6098;DHT22;3077;50.922;6.584;2022-12-17T11:22:52;-1.80;1.00
6098;DHT22;3077;50.922;6.584;2022-12-17T11:25:55;-1.60;1.00
6098;DHT22;3077;50.922;6.584;2022-12-17T11:28:40;-1.40;1.00
6098;DHT22;3077;50.922;6.584;2022-12-17T11:32:19;-0.60;1.00
6098;DHT22;3077;50.922;6.584;2022-12-17T11:35:18;-1.20;1.00
6098;DHT22;3077;50.922;6.584;2022-12-17T11:56:11;-0.50;1.00
6098;DHT22;3077;50.922;6.584;2022-12-17T12:05:45;-0.40;99.90
6098;DHT22;3077;50.922;6.584;2022-12-17T12:08:34;-0.30;47.10
6098;DHT22;3077;50.922;6.584;2022-12-17T12:11:44;-0.30;1.00
6098;DHT22;3077;50.922;6.584;2022-12-17T12:23:59;-0.80;99.90
6098;DHT22;3077;50.922;6.584;2022-12-17T12:30:08;0.20;99.90
6098;DHT22;3077;50.922;6.584;2022-12-17T12:36:18;0.10;44.40
6098;DHT22;3077;50.922;6.584;2022-12-17T12:39:20;0.10;99.90
6098;DHT22;3077;50.922;6.584;2022-12-17T12:42:31;0.30;99.90
6098;DHT22;3077;50.922;6.584;2022-12-17T12:45:54;1.10;93.40
6098;DHT22;3077;50.922;6.584;2022-12-17T12:51:37;3.10;1.00
6098;DHT22;3077;50.922;6.584;2022-12-17T12:54:49;4.50;99.90
6098;DHT22;3077;50.922;6.584;2022-12-17T13:00:36;6.60;1.00
6098;DHT22;3077;50.922;6.584;2022-12-17T13:06:08;7.60;1.00
6098;DHT22;3077;50.922;6.584;2022-12-17T13:08:34;7.50;99.90
6098;DHT22;3077;50.922;6.584;2022-12-17T13:11:28;7.80;99.90
6098;DHT22;3077;50.922;6.584;2022-12-17T13:13:59;8.20;1.00
6098;DHT22;3077;50.922;6.584;2022-12-17T13:16:36;8.80;49.20
6098;DHT22;3077;50.922;6.584;2022-12-17T13:19:36;9.50;99.90
6098;DHT22;3077;50.922;6.584;2022-12-17T13:22:29;9.70;4.30
6098;DHT22;3077;50.922;6.584;2022-12-17T13:25:15;9.70;1.00
6098;DHT22;3077;50.922;6.584;2022-12-17T13:27:42;9.70;1.00
6098;DHT22;3077;50.922;6.584;2022-12-17T13:35:51;9.50;99.90
6098;DHT22;3077;50.922;6.584;2022-12-17T13:38:30;9.00;51.50
6098;DHT22;3077;50.922;6.584;2022-12-17T13:41:13;9.00;4.00
6098;DHT22;3077;50.922;6.584;2022-12-17T13:49:01;8.80;97.00
6098;DHT22;3077;50.922;6.584;2022-12-17T13:51:29;8.40;1.00
6098;DHT22;3077;50.922;6.584;2022-12-17T13:53:56;8.40;99.90
6098;DHT22;3077;50.922;6.584;2022-12-17T13:56:48;8.40;92.80
6098;DHT22;3077;50.922;6.584;2022-12-17T13:59:20;8.70;81.90
6098;DHT22;3077;50.922;6.584;2022-12-17T14:01:49;8.40;99.90
6098;DHT22;3077;50.922;6.584;2022-12-17T14:04:24;7.90;99.90
6098;DHT22;3077;50.922;6.584;2022-12-17T14:06:51;8.20;99.90
6098;DHT22;3077;50.922;6.584;2022-12-17T14:09:19;7.80;99.90
6098;DHT22;3077;50.922;6.584;2022-12-17T14:11:45;7.60;99.90
6098;DHT22;3077;50.922;6.584;2022-12-17T14:14:39;7.80;86.60
6098;DHT22;3077;50.922;6.584;2022-12-17T14:17:21;7.90;99.90
6098;DHT22;3077;50.922;6.584;2022-12-17T14:20:06;7.50;99.90
6098;DHT22;3077;50.922;6.584;2022-12-17T14:25:00;7.40;99.90
6098;DHT22;3077;50.922;6.584;2022-12-17T14:27:31;7.80;99.90
6098;DHT22;3077;50.922;6.584;2022-12-17T14:32:34;8.00;1.00
6098;DHT22;3077;50.922;6.584;2022-12-17T14:35:00;7.80;99.90
6098;DHT22;3077;50.922;6.584;2022-12-17T14:37:27;7.60;99.90
6098;DHT22;3077;50.922;6.584;2022-12-17T14:40:04;7.50;99.90
6098;DHT22;3077;50.922;6.584;2022-12-17T14:42:34;7.30;99.90
6098;DHT22;3077;50.922;6.584;2022-12-17T14:45:05;7.20;99.90
6098;DHT22;3077;50.922;6.584;2022-12-17T14:48:13;7.00;99.90
6098;DHT22;3077;50.922;6.584;2022-12-17T14:50:39;7.10;99.90
6098;DHT22;3077;50.922;6.584;2022-12-17T14:53:25;6.50;99.90
6098;DHT22;3077;50.922;6.584;2022-12-17T14:55:56;6.20;37.70
6098;DHT22;3077;50.922;6.584;2022-12-17T14:58:25;6.40;99.90
6098;DHT22;3077;50.922;6.584;2022-12-17T15:01:12;6.20;99.90
6098;DHT22;3077;50.922;6.584;2022-12-17T15:03:40;6.10;99.90
6098;DHT22;3077;50.922;6.584;2022-12-17T15:06:07;6.00;99.90
6098;DHT22;3077;50.922;6.584;2022-12-17T15:08:35;5.90;1.00
6098;DHT22;3077;50.922;6.584;2022-12-17T15:11:02;5.90;99.90
6098;DHT22;3077;50.922;6.584;2022-12-17T15:15:53;5.40;99.90
6098;DHT22;3077;50.922;6.584;2022-12-17T15:20:45;4.70;99.90
6098;DHT22;3077;50.922;6.584;2022-12-17T15:23:15;3.90;99.90
6098;DHT22;3077;50.922;6.584;2022-12-17T15:28:08;3.10;99.90
6098;DHT22;3077;50.922;6.584;2022-12-17T15:33:00;2.20;1.00
6098;DHT22;3077;50.922;6.584;2022-12-17T15:37:52;1.80;1.00
6098;DHT22;3077;50.922;6.584;2022-12-17T15:42:44;1.10;99.90
6098;DHT22;3077;50.922;6.584;2022-12-17T15:57:38;0.30;1.00
6098;DHT22;3077;50.922;6.584;2022-12-17T16:00:04;0.20;99.90
6098;DHT22;3077;50.922;6.584;2022-12-17T16:04:55;-0.10;99.90
6098;DHT22;3077;50.922;6.584;2022-12-17T16:12:13;-0.20;58.50
6098;DHT22;3077;50.922;6.584;2022-12-17T16:21:56;-0.60;99.90
6098;DHT22;3077;50.922;6.584;2022-12-17T16:24:22;-0.70;99.90
6098;DHT22;3077;50.922;6.584;2022-12-17T16:29:13;-1.00;1.00
6098;DHT22;3077;50.922;6.584;2022-12-17T16:34:09;-1.00;71.60
6098;DHT22;3077;50.922;6.584;2022-12-17T16:36:35;-1.00;99.90
6098;DHT22;3077;50.922;6.584;2022-12-17T16:41:27;-1.20;1.00
6098;DHT22;3077;50.922;6.584;2022-12-17T16:43:53;-1.10;99.90
6098;DHT22;3077;50.922;6.584;2022-12-17T16:46:31;-1.20;1.00
6098;DHT22;3077;50.922;6.584;2022-12-17T16:49:18;-1.30;1.00
6098;DHT22;3077;50.922;6.584;2022-12-17T16:51:45;-1.30;99.90
6098;DHT22;3077;50.922;6.584;2022-12-17T16:54:16;-1.60;99.90
6098;DHT22;3077;50.922;6.584;2022-12-17T16:56:43;-1.20;99.90
6098;DHT22;3077;50.922;6.584;2022-12-17T16:59:11;-1.30;93.10
6098;DHT22;3077;50.922;6.584;2022-12-17T17:01:38;-1.60;99.90
6098;DHT22;3077;50.922;6.584;2022-12-17T17:04:05;-1.40;99.90
6098;DHT22;3077;50.922;6.584;2022-12-17T17:06:31;-1.50;1.00
6098;DHT22;3077;50.922;6.584;2022-12-17T17:08:57;-1.40;99.90
6098;DHT22;3077;50.922;6.584;2022-12-17T17:11:24;-1.50;1.00
6098;DHT22;3077;50.922;6.584;2022-12-17T17:13:51;-1.50;1.00
6098;DHT22;3077;50.922;6.584;2022-12-17T17:16:19;-1.60;1.00
6098;DHT22;3077;50.922;6.584;2022-12-17T17:18:45;-1.60;30.50
6098;DHT22;3077;50.922;6.584;2022-12-17T17:21:25;-2.00;99.90
6098;DHT22;3077;50.922;6.584;2022-12-17T17:24:00;-1.70;1.00
6098;DHT22;3077;50.922;6.584;2022-12-17T17:26:28;-1.70;99.90
6098;DHT22;3077;50.922;6.584;2022-12-17T17:31:21;-1.70;99.90
6098;DHT22;3077;50.922;6.584;2022-12-17T17:33:48;-1.70;99.90
6098;DHT22;3077;50.922;6.584;2022-12-17T17:36:20;-2.10;99.90
6098;DHT22;3077;50.922;6.584;2022-12-17T17:38:48;-1.70;1.00
6098;DHT22;3077;50.922;6.584;2022-12-17T17:41:19;-1.90;69.00
6098;DHT22;3077;50.922;6.584;2022-12-17T17:43:46;-2.00;99.90
6098;DHT22;3077;50.922;6.584;2022-12-17T17:46:16;-2.10;59.30
6098;DHT22;3077;50.922;6.584;2022-12-17T17:48:43;-2.20;99.90
6098;DHT22;3077;50.922;6.584;2022-12-17T17:51:20;-2.90;99.90
6098;DHT22;3077;50.922;6.584;2022-12-17T17:53:50;-2.20;29.50
6098;DHT22;3077;50.922;6.584;2022-12-17T17:56:21;-2.20;3.70
6098;DHT22;3077;50.922;6.584;2022-12-17T17:58:50;-2.50;99.90
6098;DHT22;3077;50.922;6.584;2022-12-17T18:01:22;-2.40;99.90
6098;DHT22;3077;50.922;6.584;2022-12-17T18:03:49;-2.30;99.90
6098;DHT22;3077;50.922;6.584;2022-12-17T18:06:15;-2.40;1.00
6098;DHT22;3077;50.922;6.584;2022-12-17T18:08:41;-2.50;99.90
6098;DHT22;3077;50.922;6.584;2022-12-17T18:11:10;-2.50;99.90
6098;DHT22;3077;50.922;6.584;2022-12-17T18:16:42;-2.60;1.00
6098;DHT22;3077;50.922;6.584;2022-12-17T18:24:02;-2.60;99.90
6098;DHT22;3077;50.922;6.584;2022-12-17T18:26:31;-3.00;99.90
6098;DHT22;3077;50.922;6.584;2022-12-17T18:28:57;-2.70;1.00
6098;DHT22;3077;50.922;6.584;2022-12-17T18:31:27;-2.80;1.00
6098;DHT22;3077;50.922;6.584;2022-12-17T18:33:56;-2.70;99.90
6098;DHT22;3077;50.922;6.584;2022-12-17T18:36:31;-2.80;99.90
6098;DHT22;3077;50.922;6.584;2022-12-17T18:39:05;-2.70;1.00
6098;DHT22;3077;50.922;6.584;2022-12-17T18:44:18;-3.70;1.00
6098;DHT22;3077;50.922;6.584;2022-12-17T18:49:12;-3.30;99.90
6098;DHT22;3077;50.922;6.584;2022-12-17T18:51:40;-3.20;99.90
6098;DHT22;3077;50.922;6.584;2022-12-17T18:54:07;-3.30;99.90
6098;DHT22;3077;50.922;6.584;2022-12-17T18:56:34;-2.90;99.90
6098;DHT22;3077;50.922;6.584;2022-12-17T18:59:00;-3.40;99.90
6098;DHT22;3077;50.922;6.584;2022-12-17T19:01:34;-3.50;99.90
6098;DHT22;3077;50.922;6.584;2022-12-17T19:04:05;-3.50;99.90
6098;DHT22;3077;50.922;6.584;2022-12-17T19:06:32;-3.50;1.00
6098;DHT22;3077;50.922;6.584;2022-12-17T19:08:58;-3.50;1.00
6098;DHT22;3077;50.922;6.584;2022-12-17T19:11:24;-3.50;1.00
6098;DHT22;3077;50.922;6.584;2022-12-17T19:16:19;-3.60;1.00
6098;DHT22;3077;50.922;6.584;2022-12-17T19:18:53;-3.50;1.00
6098;DHT22;3077;50.922;6.584;2022-12-17T19:21:20;-3.50;1.00
6098;DHT22;3077;50.922;6.584;2022-12-17T19:23:47;-3.50;1.00
6098;DHT22;3077;50.922;6.584;2022-12-17T19:26:15;-3.50;1.00
6098;DHT22;3077;50.922;6.584;2022-12-17T19:28:47;-3.50;1.00
6098;DHT22;3077;50.922;6.584;2022-12-17T19:31:14;-3.60;1.00
6098;DHT22;3077;50.922;6.584;2022-12-17T19:36:11;-3.70;1.00
6098;DHT22;3077;50.922;6.584;2022-12-17T19:41:05;-3.80;1.00
6098;DHT22;3077;50.922;6.584;2022-12-17T19:43:31;-3.80;1.00
6098;DHT22;3077;50.922;6.584;2022-12-17T19:46:27;-4.20;1.00
6098;DHT22;3077;50.922;6.584;2022-12-17T19:48:54;-3.80;1.00
6098;DHT22;3077;50.922;6.584;2022-12-17T19:51:22;-3.70;1.00
6098;DHT22;3077;50.922;6.584;2022-12-17T19:53:49;-3.60;1.00
6098;DHT22;3077;50.922;6.584;2022-12-17T20:01:09;-4.10;1.00
6098;DHT22;3077;50.922;6.584;2022-12-17T20:03:35;-4.00;1.00
6098;DHT22;3077;50.922;6.584;2022-12-17T20:06:02;-4.00;1.00
6098;DHT22;3077;50.922;6.584;2022-12-17T20:30:24;-3.70;1.00
6098;DHT22;3077;50.922;6.584;2022-12-17T20:32:50;-3.80;1.00
6098;DHT22;3077;50.922;6.584;2022-12-17T20:35:18;-3.90;1.00
6098;DHT22;3077;50.922;6.584;2022-12-17T20:37:44;-3.70;1.00
6098;DHT22;3077;50.922;6.584;2022-12-17T20:59:39;-4.00;1.00
6098;DHT22;3077;50.922;6.584;2022-12-17T21:14:16;-4.40;1.00
6098;DHT22;3077;50.922;6.584;2022-12-17T21:19:12;-4.40;1.00
6098;DHT22;3077;50.922;6.584;2022-12-17T21:21:38;-3.30;1.00
6098;DHT22;3077;50.922;6.584;2022-12-17T21:24:04;-4.60;1.00
6098;DHT22;3077;50.922;6.584;2022-12-17T21:26:33;-4.40;1.00
6098;DHT22;3077;50.922;6.584;2022-12-17T21:29:01;-2.80;1.00
6098;DHT22;3077;50.922;6.584;2022-12-17T21:31:33;-4.40;1.00
6098;DHT22;3077;50.922;6.584;2022-12-17T21:34:02;-4.50;1.00
6098;DHT22;3077;50.922;6.584;2022-12-17T21:36:28;-4.50;1.00
6098;DHT22;3077;50.922;6.584;2022-12-17T21:41:22;-4.50;1.00
6098;DHT22;3077;50.922;6.584;2022-12-17T21:43:56;-4.50;1.00
6098;DHT22;3077;50.922;6.584;2022-12-17T21:46:22;-4.50;1.00
6098;DHT22;3077;50.922;6.584;2022-12-17T21:48:50;-4.50;1.00
6098;DHT22;3077;50.922;6.584;2022-12-17T21:56:14;-4.70;1.00
6098;DHT22;3077;50.922;6.584;2022-12-17T22:01:14;-4.70;1.00
6098;DHT22;3077;50.922;6.584;2022-12-17T22:06:09;-4.70;1.00
6098;DHT22;3077;50.922;6.584;2022-12-17T22:16:12;-4.70;1.00
6098;DHT22;3077;50.922;6.584;2022-12-17T22:23:30;-4.30;1.00